createdAt,value
2023-02-07T00:01:21.001Z,15.48
2023-02-07T00:05:03.131Z,15.40
2023-02-07T00:08:45.657Z,13.33
2023-02-07T00:12:27.682Z,14.60
2023-02-07T00:16:09.832Z,15.82
2023-02-07T00:19:51.960Z,15.73
2023-02-07T00:23:34.786Z,17.75
2023-02-07T00:27:17.426Z,20.67
2023-02-07T00:31:21.912Z,19.77
2023-02-07T00:35:04.196Z,21.50
2023-02-07T00:38:46.604Z,15.35
2023-02-07T00:42:28.568Z,17.15
2023-02-07T00:46:11.452Z,15.83
2023-02-07T00:49:53.504Z,15.05
2023-02-07T00:53:35.500Z,15.77
2023-02-07T00:57:17.527Z,16.53
2023-02-07T01:01:00.189Z,17.02
2023-02-07T01:04:42.271Z,20.40
2023-02-07T01:08:24.352Z,14.85
2023-02-07T01:12:06.555Z,17.47
2023-02-07T01:15:49.639Z,16.90
2023-02-07T01:19:31.700Z,17.33
2023-02-07T01:23:14.983Z,10.47
2023-02-07T01:26:56.980Z,13.90
2023-02-07T01:30:46.161Z,13.32
2023-02-07T01:34:28.936Z,19.83
2023-02-07T01:38:10.889Z,15.13
2023-02-07T01:41:52.936Z,14.15
2023-02-07T01:45:38.804Z,15.15
2023-02-07T01:49:34.517Z,18.30
2023-02-07T01:53:20.993Z,18.95
2023-02-07T01:57:06.552Z,20.73
2023-02-07T02:00:48.781Z,20.10
2023-02-07T02:04:30.910Z,24.65
2023-02-07T02:08:12.980Z,21.50
2023-02-07T02:12:29.178Z,13.67
2023-02-07T02:16:24.993Z,21.52
2023-02-07T02:20:12.882Z,23.55
2023-02-07T02:24:32.736Z,16.88
2023-02-07T02:28:33.917Z,34.90
2023-02-07T02:32:34.441Z,29.90
2023-02-07T02:36:26.125Z,30.50
2023-02-07T02:40:30.011Z,28.30
2023-02-07T02:44:22.955Z,25.13
2023-02-07T02:48:09.014Z,22.85
2023-02-07T02:51:54.251Z,21.60
2023-02-07T02:56:02.092Z,33.72
2023-02-07T02:59:58.095Z,20.83
2023-02-07T03:04:16.449Z,22.90
2023-02-07T03:08:10.149Z,18.17
2023-02-07T03:12:09.802Z,20.58
2023-02-07T03:16:20.404Z,17.55
2023-02-07T03:20:20.578Z,21.30
2023-02-07T03:24:10.705Z,29.83
2023-02-07T03:27:55.430Z,22.60
2023-02-07T03:31:42.975Z,27.63
2023-02-07T03:35:35.877Z,33.03
2023-02-07T03:39:18.540Z,24.45
2023-02-07T03:43:08.368Z,24.98
2023-02-07T03:46:51.872Z,28.63
2023-02-07T03:50:33.956Z,25.08
2023-02-07T03:54:16.158Z,24.88
2023-02-07T03:57:58.192Z,22.00
2023-02-07T04:01:42.164Z,21.13
2023-02-07T04:05:24.526Z,18.95
2023-02-07T04:09:06.736Z,16.43
2023-02-07T04:12:48.754Z,15.45
2023-02-07T04:16:31.001Z,16.15
2023-02-07T04:20:13.576Z,24.92
2023-02-07T04:23:56.833Z,24.13
2023-02-07T04:27:38.934Z,15.65
2023-02-07T04:31:20.990Z,19.20
2023-02-07T04:35:03.071Z,20.10
2023-02-07T04:38:45.146Z,22.58
2023-02-07T04:42:27.137Z,27.02
2023-02-07T04:46:10.001Z,22.77
2023-02-07T04:49:52.139Z,26.48
2023-02-07T04:53:34.729Z,20.02
2023-02-07T04:57:16.942Z,22.48
2023-02-07T05:00:59.073Z,26.17
2023-02-07T05:04:41.191Z,19.42
2023-02-07T05:08:25.285Z,21.02
2023-02-07T05:12:11.005Z,17.43
2023-02-07T05:15:53.172Z,17.02
2023-02-07T05:19:35.238Z,22.63
2023-02-07T05:23:17.420Z,20.57
2023-02-07T05:26:59.486Z,17.17
2023-02-07T05:30:41.774Z,19.08
2023-02-07T05:34:24.330Z,19.10
2023-02-07T05:38:09.744Z,16.67
2023-02-07T05:41:51.975Z,18.17
2023-02-07T05:45:35.047Z,22.00
2023-02-07T05:49:19.615Z,20.00
2023-02-07T05:53:03.164Z,18.23
2023-02-07T05:56:45.276Z,22.73
2023-02-07T06:00:27.603Z,20.07
2023-02-07T06:04:09.595Z,18.80
2023-02-07T06:07:52.396Z,18.48
2023-02-07T06:11:34.409Z,16.52
2023-02-07T06:15:16.556Z,20.73
2023-02-07T06:18:58.614Z,18.17
2023-02-07T06:22:40.717Z,16.90
2023-02-07T06:26:22.748Z,20.80
2023-02-07T06:30:05.078Z,18.92
2023-02-07T06:33:47.045Z,15.20
2023-02-07T06:37:29.394Z,22.73
2023-02-07T06:41:11.416Z,16.20
2023-02-07T06:44:53.416Z,13.82
2023-02-07T06:48:35.411Z,16.55
2023-02-07T06:52:18.727Z,19.40
2023-02-07T06:56:00.749Z,18.17
2023-02-07T06:59:43.318Z,21.48
2023-02-07T07:03:28.912Z,16.00
2023-02-07T07:07:10.963Z,19.48
2023-02-07T07:10:53.892Z,17.40
2023-02-07T07:14:36.188Z,20.33
2023-02-07T07:18:18.263Z,17.95
2023-02-07T07:22:00.846Z,16.00
2023-02-07T07:25:42.801Z,23.27
2023-02-07T07:29:25.542Z,17.33
2023-02-07T07:33:07.730Z,17.23
2023-02-07T07:36:49.775Z,13.93
2023-02-07T07:40:31.841Z,16.43
2023-02-07T07:44:13.855Z,15.63
2023-02-07T07:47:55.890Z,17.38
2023-02-07T07:51:40.613Z,14.53
2023-02-07T07:59:23.602Z,15.15
2023-02-07T08:07:26.369Z,15.77
2023-02-07T08:15:14.052Z,13.32
2023-02-07T08:19:24.636Z,14.03
2023-02-07T08:23:06.660Z,12.65
2023-02-07T08:31:04.125Z,17.00
2023-02-07T08:35:11.039Z,13.93
2023-02-07T08:38:52.996Z,15.35
2023-02-07T08:42:57.639Z,12.85
2023-02-07T08:46:39.745Z,13.43
2023-02-07T08:54:21.466Z,14.50
2023-02-07T08:58:03.535Z,14.13
2023-02-07T09:02:05.895Z,16.70
2023-02-07T09:05:48.270Z,13.02
2023-02-07T09:13:38.921Z,11.35
2023-02-07T09:17:21.024Z,14.63
2023-02-07T09:21:23.730Z,12.13
2023-02-07T09:25:06.268Z,13.43
2023-02-07T09:29:34.636Z,13.68
2023-02-07T09:33:38.379Z,12.02
2023-02-07T09:37:20.349Z,12.40
2023-02-07T09:45:09.976Z,15.15
2023-02-07T09:58:23.858Z,11.45
2023-02-07T10:02:21.783Z,11.68
2023-02-07T10:06:22.353Z,10.93
2023-02-07T10:10:04.617Z,13.75
2023-02-07T10:14:16.956Z,17.35
2023-02-07T10:18:42.804Z,15.67
2023-02-07T10:31:39.261Z,15.67
2023-02-07T10:40:35.815Z,18.15
2023-02-07T10:58:43.020Z,16.63
2023-02-07T11:07:47.493Z,16.30
2023-02-07T11:21:08.671Z,24.55
2023-02-07T11:25:36.998Z,27.02
2023-02-07T11:43:48.302Z,20.33
2023-02-07T13:25:06.227Z,25.25
2023-02-07T17:00:35.942Z,28.52
2023-02-07T17:04:42.647Z,25.73
2023-02-07T17:20:48.431Z,22.23
2023-02-07T17:24:31.643Z,21.73
2023-02-07T17:28:17.774Z,24.27
2023-02-07T17:31:59.750Z,23.70
2023-02-07T17:35:41.750Z,26.70
2023-02-07T17:39:23.730Z,22.58
2023-02-07T17:43:06.919Z,33.10
2023-02-07T17:46:49.152Z,48.60
2023-02-07T17:50:35.509Z,42.92
2023-02-07T17:54:17.525Z,25.38
2023-02-07T18:07:34.283Z,28.70
2023-02-07T18:11:16.723Z,32.70
2023-02-07T18:14:58.705Z,27.60
2023-02-07T18:18:43.356Z,29.45
2023-02-07T18:22:25.467Z,39.83
2023-02-07T18:26:07.565Z,31.77
2023-02-07T18:29:51.134Z,32.13
2023-02-07T18:33:33.154Z,38.17
2023-02-07T18:37:17.505Z,39.00
2023-02-07T18:40:59.511Z,35.28
2023-02-07T18:44:41.615Z,29.70
2023-02-07T18:48:26.230Z,34.73
2023-02-07T18:52:08.377Z,33.65
2023-02-07T18:55:50.418Z,31.83
2023-02-07T18:59:34.258Z,28.58
2023-02-07T19:03:16.551Z,28.83
2023-02-07T19:06:59.890Z,30.33
2023-02-07T19:10:44.290Z,31.45
2023-02-07T19:14:31.170Z,38.23
2023-02-07T19:18:13.255Z,39.80
2023-02-07T19:21:56.520Z,33.95
2023-02-07T19:25:46.374Z,35.93
2023-02-07T19:29:30.147Z,32.58
2023-02-07T19:33:12.257Z,35.42
2023-02-07T19:36:58.464Z,29.27
2023-02-07T19:40:40.832Z,33.10
2023-02-07T19:44:23.201Z,33.03
2023-02-07T19:48:05.615Z,28.65
2023-02-07T19:51:48.508Z,33.30
2023-02-07T19:55:30.625Z,28.42
2023-02-07T19:59:12.775Z,28.05
2023-02-07T20:02:54.749Z,32.87
2023-02-07T20:06:36.947Z,29.50
2023-02-07T20:10:19.386Z,35.67
2023-02-07T20:14:06.937Z,36.45
2023-02-07T20:17:49.060Z,40.10
2023-02-07T20:21:33.829Z,36.03
2023-02-07T20:25:15.882Z,30.38
2023-02-07T20:29:02.203Z,35.63
2023-02-07T20:32:44.277Z,33.47
2023-02-07T20:36:29.385Z,35.53
2023-02-07T20:40:11.624Z,38.80
2023-02-07T20:43:55.317Z,31.98
2023-02-07T20:47:38.629Z,28.08
2023-02-07T20:51:20.688Z,31.05
2023-02-07T20:55:06.093Z,31.07
2023-02-07T20:58:48.172Z,27.42
2023-02-07T21:02:30.289Z,27.85
2023-02-07T21:06:12.903Z,22.23
2023-02-07T21:09:55.194Z,25.35
2023-02-07T21:13:38.161Z,24.98
2023-02-07T21:17:20.141Z,25.30
2023-02-07T21:21:06.995Z,23.52
2023-02-07T21:24:49.400Z,24.73
2023-02-07T21:28:31.676Z,27.85
2023-02-07T21:32:13.673Z,29.27
2023-02-07T21:36:16.197Z,28.83
2023-02-07T21:39:58.222Z,29.58
2023-02-07T21:43:40.864Z,28.37
2023-02-07T21:47:22.881Z,26.63
2023-02-07T21:51:06.847Z,30.27
2023-02-07T21:54:48.952Z,32.10
2023-02-07T21:58:31.244Z,31.75
2023-02-07T22:02:14.511Z,33.63
2023-02-07T22:05:56.624Z,25.00
2023-02-07T22:09:38.712Z,30.97
2023-02-07T22:13:20.730Z,27.35
2023-02-07T22:17:04.915Z,25.52
2023-02-07T22:20:46.968Z,26.67
2023-02-07T22:24:31.863Z,22.33
2023-02-07T22:28:16.383Z,28.10
2023-02-07T22:31:58.636Z,22.60
2023-02-07T22:35:42.353Z,21.60
2023-02-07T22:39:24.313Z,24.60
2023-02-07T22:43:14.986Z,26.42
2023-02-07T22:46:57.124Z,25.67
2023-02-07T22:50:39.353Z,25.27
2023-02-07T22:54:21.481Z,34.58
2023-02-07T22:58:03.532Z,27.53
2023-02-07T23:01:45.574Z,26.50
2023-02-07T23:05:27.732Z,23.23
2023-02-07T23:09:10.556Z,23.20
2023-02-07T23:12:53.153Z,24.13
2023-02-07T23:16:36.185Z,27.00
2023-02-07T23:20:18.351Z,24.00
2023-02-07T23:24:01.597Z,21.27
2023-02-07T23:27:44.898Z,26.85
2023-02-07T23:31:27.278Z,27.13
2023-02-07T23:35:09.384Z,26.70
2023-02-07T23:38:51.831Z,25.55
2023-02-07T23:42:34.451Z,28.35
2023-02-07T23:46:17.733Z,25.20
2023-02-07T23:49:59.807Z,24.73
2023-02-07T23:53:43.297Z,25.88
2023-02-07T23:57:25.641Z,23.95
